Time;durP1;ratioP1;P1;durP2;ratioP2;P2;SDS_P1;SDS_P2;PMS_P1;PMS_P2;Temp;Humidity;BMP_temperature;BMP_pressure;BME280_temperature;BME280_humidity;BME280_pressure;Samples;Min_cycle;Max_cycle;Signal;HPM_P1;HPM_P2
2024/01/13 00:01:55;;;;;;;;;;;0.50;88.70;;;;;;5110306;28;19928;-58
2024/01/13 00:04:28;;;;;;;;;;;0.50;88.70;;;;;;5105784;28;20038;-59
2024/01/13 00:06:55;;;;;;;;;;;0.40;88.70;;;;;;5114373;28;19989;-58
2024/01/13 00:09:30;;;;;;;;;;;0.50;88.70;;;;;;5114822;28;19963;-59
2024/01/13 00:11:56;;;;;;;;;;;0.40;88.80;;;;;;5111546;28;20311;-60
2024/01/13 00:14:29;;;;;;;;;;;0.40;88.80;;;;;;5113991;27;20359;-58
2024/01/13 00:17:02;;;;;;;;;;;0.50;88.70;;;;;;5097986;27;20379;-58
2024/01/13 00:19:35;;;;;;;;;;;0.50;88.70;;;;;;5095654;27;20401;-59
2024/01/13 00:22:08;;;;;;;;;;;0.40;88.70;;;;;;5111827;27;19927;-59
2024/01/13 00:24:36;;;;;;;;;;;0.50;88.70;;;;;;5102124;27;19928;-60
2024/01/13 00:27:09;;;;;;;;;;;0.40;88.70;;;;;;5118708;27;19924;-60
2024/01/13 00:29:36;;;;;;;;;;;0.40;88.80;;;;;;5111059;27;19924;-58
2024/01/13 00:32:09;;;;;;;;;;;0.40;88.80;;;;;;5117727;27;19959;-59
2024/01/13 00:34:42;;;;;;;;;;;0.40;88.80;;;;;;5103982;27;19970;-60
2024/01/13 00:37:15;;;;;;;;;;;0.50;88.70;;;;;;5103760;27;19935;-59
2024/01/13 00:39:49;;;;;;;;;;;0.50;88.70;;;;;;5093589;27;19924;-60
2024/01/13 00:42:22;;;;;;;;;;;0.40;88.70;;;;;;5115574;27;19932;-60
2024/01/13 00:44:55;;;;;;;;;;;0.40;88.80;;;;;;5108259;27;19928;-60
2024/01/13 00:47:28;;;;;;;;;;;0.40;88.80;;;;;;5115996;27;19923;-60
2024/01/13 00:50:01;;;;;;;;;;;0.40;88.80;;;;;;5112793;27;20345;-60
2024/01/13 00:52:34;;;;;;;;;;;0.40;88.70;;;;;;5089851;28;20405;-59
2024/01/13 00:55:09;;;;;;;;;;;0.40;88.90;;;;;;5086488;28;20017;-61
2024/01/13 00:57:49;;;;;;;;;;;0.40;88.70;;;;;;5106089;27;19973;-60
2024/01/13 01:00:22;;;;;;;;;;;0.50;88.60;;;;;;5100404;27;19927;-59
2024/01/13 01:02:55;;;;;;;;;;;0.50;88.60;;;;;;5110656;27;19928;-59
2024/01/13 01:05:28;;;;;;;;;;;0.40;88.70;;;;;;5104077;27;19934;-60
2024/01/13 01:08:01;;;;;;;;;;;0.40;88.80;;;;;;5108477;27;19924;-60
2024/01/13 01:10:36;;;;;;;;;;;0.40;88.90;;;;;;5108390;27;20308;-60
2024/01/13 01:13:09;;;;;;;;;;;0.40;88.80;;;;;;5094863;28;19932;-61
2024/01/13 01:15:42;;;;;;;;;;;0.40;88.80;;;;;;5113964;27;20397;-60
2024/01/13 01:18:16;;;;;;;;;;;0.40;88.80;;;;;;5101759;27;19928;-58
2024/01/13 01:20:49;;;;;;;;;;;0.40;88.90;;;;;;5103515;27;19980;-59
2024/01/13 01:23:24;;;;;;;;;;;0.40;88.90;;;;;;5099782;28;20289;-63
2024/01/13 01:25:59;;;;;;;;;;;0.40;88.90;;;;;;5113530;27;19924;-60
2024/01/13 01:28:32;;;;;;;;;;;0.40;88.90;;;;;;5106884;27;19974;-61
2024/01/13 01:31:06;;;;;;;;;;;0.40;88.90;;;;;;5097974;27;19935;-59
2024/01/13 01:33:39;;;;;;;;;;;0.40;89.00;;;;;;5107911;27;19928;-59
2024/01/13 01:36:12;;;;;;;;;;;0.30;88.90;;;;;;5104416;27;19924;-59
2024/01/13 01:38:45;;;;;;;;;;;0.40;88.90;;;;;;5101701;27;19924;-60
2024/01/13 01:41:20;;;;;;;;;;;0.30;89.00;;;;;;5112191;27;19924;-60
2024/01/13 01:43:53;;;;;;;;;;;0.30;88.90;;;;;;5113348;27;19938;-59
2024/01/13 01:46:27;;;;;;;;;;;0.30;88.90;;;;;;5109218;27;20023;-59
2024/01/13 01:49:00;;;;;;;;;;;0.30;88.90;;;;;;5118640;27;19928;-59
2024/01/13 01:51:34;;;;;;;;;;;0.30;89.00;;;;;;5096202;27;19943;-60
2024/01/13 01:54:06;;;;;;;;;;;0.30;89.00;;;;;;5098109;27;20461;-64
2024/01/13 01:56:41;;;;;;;;;;;0.30;89.00;;;;;;5115748;27;19970;-60
2024/01/13 01:59:15;;;;;;;;;;;0.30;89.10;;;;;;5095519;28;19955;-60
2024/01/13 02:01:48;;;;;;;;;;;0.30;89.10;;;;;;5114909;27;19927;-72
2024/01/13 02:04:21;;;;;;;;;;;0.30;89.00;;;;;;5100839;27;19942;-70
2024/01/13 02:06:54;;;;;;;;;;;0.30;89.00;;;;;;5096344;27;19996;-72
2024/01/13 02:09:28;;;;;;;;;;;0.30;88.90;;;;;;5099554;27;19943;-72
2024/01/13 02:12:03;;;;;;;;;;;0.40;88.90;;;;;;5115792;27;19961;-70
2024/01/13 02:14:36;;;;;;;;;;;0.40;88.90;;;;;;5098417;27;19950;-71
2024/01/13 02:17:16;;;;;;;;;;;0.40;88.90;;;;;;5107481;27;19939;-70
2024/01/13 02:19:49;;;;;;;;;;;0.30;89.00;;;;;;5104492;27;20659;-70
2024/01/13 02:22:24;;;;;;;;;;;0.30;88.90;;;;;;5096711;28;20297;-71
2024/01/13 02:24:58;;;;;;;;;;;0.40;89.00;;;;;;5107222;27;20035;-71
2024/01/13 02:27:31;;;;;;;;;;;0.30;89.00;;;;;;5107086;27;20012;-71
2024/01/13 02:30:05;;;;;;;;;;;0.30;89.10;;;;;;5118080;27;19938;-71
2024/01/13 02:32:45;;;;;;;;;;;0.30;89.10;;;;;;5108949;27;20417;-71
2024/01/13 02:35:18;;;;;;;;;;;0.30;89.10;;;;;;5115490;27;19927;-72
2024/01/13 02:37:53;;;;;;;;;;;0.30;89.10;;;;;;5094749;27;19934;-72
2024/01/13 02:40:32;;;;;;;;;;;0.30;89.20;;;;;;5110683;27;19924;-72
2024/01/13 02:43:05;;;;;;;;;;;0.30;89.10;;;;;;5108923;27;19938;-72
2024/01/13 02:45:38;;;;;;;;;;;0.30;89.10;;;;;;5108208;27;20374;-71
2024/01/13 02:48:15;;;;;;;;;;;0.40;89.10;;;;;;5102930;27;20359;-71
2024/01/13 02:50:51;;;;;;;;;;;0.30;89.20;;;;;;5091831;28;20298;-71
2024/01/13 02:53:32;;;;;;;;;;;0.30;89.20;;;;;;5088577;28;20014;-72
2024/01/13 02:56:05;;;;;;;;;;;0.30;89.20;;;;;;5116338;27;19984;-72
2024/01/13 02:58:38;;;;;;;;;;;0.30;89.20;;;;;;5114226;27;20378;-71
2024/01/13 03:01:11;;;;;;;;;;;0.30;89.20;;;;;;5107112;27;19928;-72
2024/01/13 03:03:45;;;;;;;;;;;0.30;89.20;;;;;;5086800;28;19924;-71
2024/01/13 03:06:18;;;;;;;;;;;0.30;89.30;;;;;;5101654;28;19928;-70
2024/01/13 03:08:53;;;;;;;;;;;0.30;89.30;;;;;;5094197;28;19928;-71
2024/01/13 03:11:26;;;;;;;;;;;0.30;89.30;;;;;;5106681;28;20607;-60
2024/01/13 03:13:59;;;;;;;;;;;0.40;89.10;;;;;;5114772;28;19938;-59
2024/01/13 03:16:32;;;;;;;;;;;0.40;89.00;;;;;;5105532;28;19924;-60
2024/01/13 03:19:06;;;;;;;;;;;0.30;89.00;;;;;;5093776;28;20003;-58
2024/01/13 03:21:39;;;;;;;;;;;0.30;89.20;;;;;;5086122;28;19951;-60
2024/01/13 03:24:14;;;;;;;;;;;0.40;89.10;;;;;;5096331;28;19973;-59
2024/01/13 03:26:47;;;;;;;;;;;0.30;89.10;;;;;;5098807;27;20450;-58
2024/01/13 03:29:20;;;;;;;;;;;0.30;89.10;;;;;;5082787;28;19961;-60
2024/01/13 03:31:53;;;;;;;;;;;0.30;89.10;;;;;;5105255;28;19923;-60
2024/01/13 03:34:26;;;;;;;;;;;0.30;89.10;;;;;;5098971;28;19935;-59
2024/01/13 03:36:59;;;;;;;;;;;0.30;89.10;;;;;;5112200;28;19938;-59
2024/01/13 03:39:34;;;;;;;;;;;0.30;89.10;;;;;;5105518;28;19927;-59
2024/01/13 03:42:06;;;;;;;;;;;0.30;89.20;;;;;;5108586;28;19936;-60
2024/01/13 03:44:39;;;;;;;;;;;0.30;89.20;;;;;;5088240;28;19928;-60
2024/01/13 03:47:12;;;;;;;;;;;0.30;89.20;;;;;;5111164;27;20344;-60
2024/01/13 03:49:45;;;;;;;;;;;0.30;89.20;;;;;;5103694;27;19932;-60
2024/01/13 03:52:18;;;;;;;;;;;0.40;89.10;;;;;;5095208;28;19960;-60
2024/01/13 03:54:53;;;;;;;;;;;0.40;89.10;;;;;;5090965;28;19934;-60
2024/01/13 03:57:26;;;;;;;;;;;0.30;89.10;;;;;;5092718;28;21241;-60
2024/01/13 03:59:59;;;;;;;;;;;0.40;89.10;;;;;;5104219;27;20362;-61
2024/01/13 04:02:33;;;;;;;;;;;0.40;89.10;;;;;;5115924;27;19963;-60
2024/01/13 04:05:07;;;;;;;;;;;0.40;89.10;;;;;;5102219;27;19997;-63
2024/01/13 04:07:39;;;;;;;;;;;0.40;89.10;;;;;;5114962;27;19996;-59
2024/01/13 04:10:14;;;;;;;;;;;0.40;89.00;;;;;;5108988;27;20023;-58
2024/01/13 04:12:47;;;;;;;;;;;0.40;89.00;;;;;;5101849;27;19983;-60
2024/01/13 04:15:20;;;;;;;;;;;0.40;89.00;;;;;;5094960;28;19928;-59
2024/01/13 04:17:54;;;;;;;;;;;0.40;89.10;;;;;;5118611;27;19935;-60
2024/01/13 04:20:27;;;;;;;;;;;0.30;89.10;;;;;;5111675;27;19946;-81
2024/01/13 04:23:00;;;;;;;;;;;0.30;89.00;;;;;;5113134;27;19934;-79
2024/01/13 04:25:28;;;;;;;;;;;0.30;89.10;;;;;;5108897;27;19932;-82
2024/01/13 04:28:01;;;;;;;;;;;0.30;89.20;;;;;;5115469;27;19931;-77
2024/01/13 04:30:35;;;;;;;;;;;0.30;89.20;;;;;;5113989;27;20393;-81
2024/01/13 04:33:15;;;;;;;;;;;0.30;89.20;;;;;;5116582;27;19924;-81
2024/01/13 04:35:48;;;;;;;;;;;0.30;89.20;;;;;;5118091;27;19932;-81
2024/01/13 04:38:21;;;;;;;;;;;0.30;89.10;;;;;;5117094;27;19935;-80
2024/01/13 04:40:56;;;;;;;;;;;0.30;89.10;;;;;;5107593;27;19938;-78
2024/01/13 04:43:29;;;;;;;;;;;0.30;89.20;;;;;;5115114;27;20063;-81
2024/01/13 04:46:02;;;;;;;;;;;0.30;89.20;;;;;;5107403;27;20023;-81
2024/01/13 04:48:35;;;;;;;;;;;0.30;89.10;;;;;;5095263;28;19931;-81
2024/01/13 04:51:02;;;;;;;;;;;0.30;89.20;;;;;;5089363;28;19935;-79
2024/01/13 04:53:35;;;;;;;;;;;0.30;89.10;;;;;;5104203;27;19931;-79
2024/01/13 04:56:10;;;;;;;;;;;0.30;89.10;;;;;;5120891;27;20006;-80
2024/01/13 04:58:43;;;;;;;;;;;0.30;89.10;;;;;;5100366;27;20390;-79
2024/01/13 05:01:16;;;;;;;;;;;0.30;89.10;;;;;;5091372;28;20625;-80
2024/01/13 05:03:49;;;;;;;;;;;0.30;89.10;;;;;;5098767;27;20027;-79
2024/01/13 05:06:16;;;;;;;;;;;0.30;89.10;;;;;;5119482;27;19938;-80
2024/01/13 05:08:49;;;;;;;;;;;0.30;89.10;;;;;;5097903;27;20336;-78
2024/01/13 05:11:24;;;;;;;;;;;0.30;89.10;;;;;;5084162;27;20289;-78
2024/01/13 05:13:56;;;;;;;;;;;0.30;89.10;;;;;;5091648;28;19927;-81
2024/01/13 05:16:29;;;;;;;;;;;0.30;89.00;;;;;;5117862;27;19971;-80
2024/01/13 05:19:03;;;;;;;;;;;0.30;89.10;;;;;;5104548;27;19956;-81
2024/01/13 05:21:36;;;;;;;;;;;0.30;89.10;;;;;;5111969;27;19979;-78
2024/01/13 05:24:09;;;;;;;;;;;0.30;89.10;;;;;;5106284;27;19965;-83
2024/01/13 05:26:44;;;;;;;;;;;0.30;89.10;;;;;;5097329;28;19930;-80
2024/01/13 05:29:16;;;;;;;;;;;0.30;89.00;;;;;;5105428;27;19928;-82
2024/01/13 05:31:49;;;;;;;;;;;0.30;89.10;;;;;;5102848;27;19968;-70
2024/01/13 05:34:22;;;;;;;;;;;0.30;89.00;;;;;;5103604;27;19928;-71
2024/01/13 05:36:49;;;;;;;;;;;0.30;89.10;;;;;;5091291;28;19928;-71
2024/01/13 05:39:22;;;;;;;;;;;0.30;89.00;;;;;;5089561;28;20009;-71
2024/01/13 05:41:58;;;;;;;;;;;0.30;89.00;;;;;;5103667;27;20005;-71
2024/01/13 05:44:30;;;;;;;;;;;0.30;89.10;;;;;;5092024;28;20340;-70
2024/01/13 05:47:04;;;;;;;;;;;0.30;89.00;;;;;;5108486;27;19923;-70
2024/01/13 05:49:37;;;;;;;;;;;0.30;89.00;;;;;;5117881;27;19977;-70
2024/01/13 05:52:10;;;;;;;;;;;0.30;89.10;;;;;;5118534;27;19984;-70
2024/01/13 05:54:44;;;;;;;;;;;0.30;89.10;;;;;;5095109;27;19970;-71
2024/01/13 05:57:18;;;;;;;;;;;0.30;89.10;;;;;;5103100;28;19928;-74
2024/01/13 05:59:51;;;;;;;;;;;0.30;89.10;;;;;;5104473;28;22732;-70
2024/01/13 06:02:24;;;;;;;;;;;0.30;89.10;;;;;;5114808;27;20010;-71
2024/01/13 06:04:57;;;;;;;;;;;0.30;89.10;;;;;;5102897;27;19950;-72
2024/01/13 06:07:30;;;;;;;;;;;0.30;89.10;;;;;;5089955;28;20050;-71
2024/01/13 06:10:04;;;;;;;;;;;0.30;89.10;;;;;;5098270;27;19938;-70
2024/01/13 06:12:39;;;;;;;;;;;0.30;89.10;;;;;;5115411;27;19931;-70
2024/01/13 06:15:12;;;;;;;;;;;0.30;89.00;;;;;;5103220;27;19930;-71
2024/01/13 06:17:45;;;;;;;;;;;0.40;89.00;;;;;;5098581;27;19924;-72
2024/01/13 06:20:19;;;;;;;;;;;0.30;89.10;;;;;;5110032;27;19959;-71
2024/01/13 06:22:51;;;;;;;;;;;0.30;89.20;;;;;;5119254;27;21807;-71
2024/01/13 06:25:24;;;;;;;;;;;0.30;89.20;;;;;;5111050;27;19934;-69
2024/01/13 06:27:59;;;;;;;;;;;0.30;89.10;;;;;;5105135;27;20446;-69
2024/01/13 06:30:32;;;;;;;;;;;0.30;89.00;;;;;;5104524;27;19923;-70
2024/01/13 06:33:05;;;;;;;;;;;0.30;89.10;;;;;;5103079;27;20010;-69
2024/01/13 06:35:38;;;;;;;;;;;0.30;89.10;;;;;;5116297;27;19924;-72
2024/01/13 06:38:11;;;;;;;;;;;0.30;89.10;;;;;;5116730;27;20413;-71
2024/01/13 06:40:44;;;;;;;;;;;0.30;89.10;;;;;;5116719;27;20007;-71
2024/01/13 06:43:19;;;;;;;;;;;0.30;89.00;;;;;;5103908;27;19931;-71
2024/01/13 06:45:45;;;;;;;;;;;0.40;89.00;;;;;;5104184;27;20019;-68
2024/01/13 06:48:18;;;;;;;;;;;0.40;89.10;;;;;;5095465;28;19930;-69
2024/01/13 06:50:51;;;;;;;;;;;0.40;89.10;;;;;;5103887;27;19936;-71
2024/01/13 06:53:18;;;;;;;;;;;0.40;89.00;;;;;;5102761;27;19977;-70
2024/01/13 06:55:52;;;;;;;;;;;0.40;88.90;;;;;;5092615;28;19989;-70
2024/01/13 06:58:27;;;;;;;;;;;0.40;89.00;;;;;;5088303;28;19928;-69
2024/01/13 07:01:00;;;;;;;;;;;0.40;89.00;;;;;;5113528;27;19923;-71
2024/01/13 07:03:34;;;;;;;;;;;0.40;89.10;;;;;;5114240;27;19924;-70
2024/01/13 07:06:07;;;;;;;;;;;0.30;89.10;;;;;;5113596;27;19928;-71
2024/01/13 07:08:42;;;;;;;;;;;0.30;89.10;;;;;;5094869;28;19924;-72
2024/01/13 07:11:16;;;;;;;;;;;0.40;89.00;;;;;;5096695;28;19931;-70
2024/01/13 07:13:50;;;;;;;;;;;0.40;89.00;;;;;;5105703;28;19930;-71
2024/01/13 07:16:23;;;;;;;;;;;0.40;89.00;;;;;;5092802;28;19931;-71
2024/01/13 07:18:56;;;;;;;;;;;0.30;88.90;;;;;;5102677;28;19932;-72
2024/01/13 07:21:29;;;;;;;;;;;0.40;89.00;;;;;;5116975;28;20339;-71
2024/01/13 07:24:17;;;;;;;;;;;0.40;88.90;;;;;;5109084;27;26551;-70
2024/01/13 07:26:57;;;;;;;;;;;0.30;89.00;;;;;;5117260;27;19977;-72
2024/01/13 07:29:32;;;;;;;;;;;0.40;89.00;;;;;;5118894;27;19930;-71
2024/01/13 07:32:05;;;;;;;;;;;0.40;89.00;;;;;;5103879;27;20405;-71
2024/01/13 07:34:38;;;;;;;;;;;0.40;89.00;;;;;;5080651;27;19928;-72
2024/01/13 07:37:11;;;;;;;;;;;0.40;89.10;;;;;;5115625;27;19928;-71
2024/01/13 07:39:45;;;;;;;;;;;0.40;89.10;;;;;;5108264;27;19938;-71
2024/01/13 07:42:17;;;;;;;;;;;0.40;89.10;;;;;;5100952;28;19931;-71
2024/01/13 07:44:52;;;;;;;;;;;0.40;89.10;;;;;;5110472;27;19938;-70
2024/01/13 07:47:25;;;;;;;;;;;0.40;89.00;;;;;;5119359;27;19955;-71
2024/01/13 07:50:05;;;;;;;;;;;0.40;89.00;;;;;;5109017;27;19924;-59
2024/01/13 07:52:38;;;;;;;;;;;0.40;89.00;;;;;;5090930;28;19970;-60
2024/01/13 07:55:11;;;;;;;;;;;0.40;89.00;;;;;;5087027;28;20398;-59
2024/01/13 07:57:44;;;;;;;;;;;0.50;89.00;;;;;;5089678;28;19955;-58
2024/01/13 08:00:19;;;;;;;;;;;0.40;89.00;;;;;;5092136;28;19935;-58
2024/01/13 08:02:53;;;;;;;;;;;0.40;89.10;;;;;;5111363;27;20377;-60
2024/01/13 08:05:26;;;;;;;;;;;0.50;89.00;;;;;;5119962;27;20431;-61
2024/01/13 08:08:01;;;;;;;;;;;0.40;89.00;;;;;;5116894;27;19928;-59
2024/01/13 08:10:36;;;;;;;;;;;0.40;89.00;;;;;;5100100;28;20015;-61
2024/01/13 08:13:10;;;;;;;;;;;0.50;89.00;;;;;;5106874;27;19972;-60
2024/01/13 08:15:44;;;;;;;;;;;0.50;89.00;;;;;;5109105;27;20002;-60
2024/01/13 08:18:17;;;;;;;;;;;0.40;89.10;;;;;;5114599;27;19989;-61
2024/01/13 08:20:51;;;;;;;;;;;0.40;89.20;;;;;;5099351;27;19973;-58
2024/01/13 08:23:24;;;;;;;;;;;0.50;89.10;;;;;;5120209;27;19948;-58
2024/01/13 08:25:57;;;;;;;;;;;0.40;89.10;;;;;;5097317;28;19939;-59
2024/01/13 08:28:30;;;;;;;;;;;0.50;89.10;;;;;;5100487;27;19931;-58
2024/01/13 08:31:05;;;;;;;;;;;0.50;89.00;;;;;;5113041;27;19923;-60
2024/01/13 08:33:38;;;;;;;;;;;0.50;88.90;;;;;;5108825;27;19935;-59
2024/01/13 08:36:11;;;;;;;;;;;0.50;89.10;;;;;;5106132;27;19972;-60
2024/01/13 08:38:44;;;;;;;;;;;0.50;89.00;;;;;;5117955;27;19934;-60
2024/01/13 08:41:17;;;;;;;;;;;0.50;89.10;;;;;;5110940;27;19934;-60
2024/01/13 08:43:50;;;;;;;;;;;0.50;89.00;;;;;;5095233;28;20015;-60
2024/01/13 08:46:25;;;;;;;;;;;0.50;89.00;;;;;;5112103;27;20746;-58
2024/01/13 08:48:58;;;;;;;;;;;0.60;89.00;;;;;;5109210;27;20007;-59
2024/01/13 08:51:31;;;;;;;;;;;0.50;89.00;;;;;;5119451;27;19923;-60
2024/01/13 08:54:05;;;;;;;;;;;0.50;89.00;;;;;;5120006;27;19931;-61
2024/01/13 08:56:38;;;;;;;;;;;0.50;89.00;;;;;;5110000;27;20004;-59
2024/01/13 08:59:11;;;;;;;;;;;0.50;89.00;;;;;;5108433;27;19950;-59
2024/01/13 09:01:39;;;;;;;;;;;0.60;89.00;;;;;;5097732;28;19928;-61
2024/01/13 09:04:12;;;;;;;;;;;0.50;89.00;;;;;;5102072;27;19969;-63
2024/01/13 09:06:46;;;;;;;;;;;0.60;88.90;;;;;;5100077;27;19934;-64
2024/01/13 09:09:19;;;;;;;;;;;0.60;89.00;;;;;;5109760;27;19930;-64
2024/01/13 09:11:53;;;;;;;;;;;0.60;88.90;;;;;;5097902;28;19924;-63
2024/01/13 09:14:25;;;;;;;;;;;0.60;88.90;;;;;;5116082;27;20002;-63
2024/01/13 09:17:00;;;;;;;;;;;0.60;88.90;;;;;;5108753;27;19930;-62
2024/01/13 09:19:33;;;;;;;;;;;0.60;88.80;;;;;;5097315;27;19969;-62
2024/01/13 09:22:06;;;;;;;;;;;0.60;88.80;;;;;;5110219;27;19945;-63
2024/01/13 09:24:41;;;;;;;;;;;0.70;88.80;;;;;;5102859;27;20019;-63
2024/01/13 09:27:16;;;;;;;;;;;0.70;88.70;;;;;;5090353;28;19935;-62
2024/01/13 09:29:50;;;;;;;;;;;0.70;88.80;;;;;;5081797;28;20284;-62
2024/01/13 09:32:25;;;;;;;;;;;0.70;88.80;;;;;;5093006;28;20592;-62
2024/01/13 09:34:58;;;;;;;;;;;0.70;88.80;;;;;;5115167;27;19935;-62
2024/01/13 09:37:31;;;;;;;;;;;0.70;88.90;;;;;;5097873;28;19939;-63
2024/01/13 09:40:05;;;;;;;;;;;0.70;88.90;;;;;;5112929;27;19924;-63
2024/01/13 09:42:43;;;;;;;;;;;0.70;88.90;;;;;;5106342;27;19978;-62
2024/01/13 09:45:17;;;;;;;;;;;0.70;88.80;;;;;;5103697;27;19931;-67
2024/01/13 09:47:54;;;;;;;;;;;0.80;88.70;;;;;;5092705;27;20020;-63
2024/01/13 09:50:26;;;;;;;;;;;0.80;88.80;;;;;;5104634;27;20726;-61
2024/01/13 09:53:00;;;;;;;;;;;0.80;88.60;;;;;;5102430;27;20437;-64
2024/01/13 09:55:34;;;;;;;;;;;0.80;88.70;;;;;;5093172;28;19935;-62
2024/01/13 09:58:07;;;;;;;;;;;0.90;88.60;;;;;;5119153;27;20116;-63
2024/01/13 10:00:41;;;;;;;;;;;0.80;88.50;;;;;;5101370;27;20357;-63
2024/01/13 10:03:16;;;;;;;;;;;0.80;88.50;;;;;;5092527;28;20302;-62
2024/01/13 10:05:43;;;;;;;;;;;0.90;88.40;;;;;;5117616;27;19931;-62
2024/01/13 10:08:15;;;;;;;;;;;0.90;88.50;;;;;;5117651;27;19935;-63
2024/01/13 10:10:48;;;;;;;;;;;0.90;88.30;;;;;;5105966;27;19928;-62
2024/01/13 10:13:25;;;;;;;;;;;0.90;88.40;;;;;;5097145;27;19935;-63
2024/01/13 10:15:58;;;;;;;;;;;0.90;88.30;;;;;;5117669;27;19928;-62
2024/01/13 10:18:32;;;;;;;;;;;0.80;88.50;;;;;;5109724;27;19927;-61
2024/01/13 10:21:06;;;;;;;;;;;0.80;88.50;;;;;;5090649;28;20351;-61
2024/01/13 10:23:40;;;;;;;;;;;0.80;88.60;;;;;;5116397;27;19923;-61
2024/01/13 10:26:13;;;;;;;;;;;0.90;88.50;;;;;;5102722;27;20011;-62
2024/01/13 10:28:46;;;;;;;;;;;0.90;88.50;;;;;;5103240;27;20283;-66
2024/01/13 10:31:20;;;;;;;;;;;1.00;88.50;;;;;;5093533;28;20290;-61
2024/01/13 10:33:48;;;;;;;;;;;0.90;88.20;;;;;;5107794;27;19979;-61
2024/01/13 10:36:23;;;;;;;;;;;1.00;88.20;;;;;;5118805;27;19980;-61
2024/01/13 10:38:49;;;;;;;;;;;1.00;88.20;;;;;;5108372;27;19992;-63
2024/01/13 10:41:23;;;;;;;;;;;0.90;88.30;;;;;;5118824;27;20309;-62
2024/01/13 10:43:57;;;;;;;;;;;1.00;88.20;;;;;;5100578;27;19975;-62
2024/01/13 10:46:32;;;;;;;;;;;1.00;88.20;;;;;;5104960;27;19932;-63
2024/01/13 10:49:11;;;;;;;;;;;1.00;88.30;;;;;;5118753;27;19923;-62
2024/01/13 10:51:48;;;;;;;;;;;1.00;88.30;;;;;;5101678;27;19924;-62
2024/01/13 10:54:25;;;;;;;;;;;1.00;88.30;;;;;;5116725;27;19927;-63
2024/01/13 10:56:58;;;;;;;;;;;1.00;88.20;;;;;;5100731;27;20022;-63
2024/01/13 10:59:27;;;;;;;;;;;1.00;88.20;;;;;;5102441;27;19955;-62
2024/01/13 11:02:00;;;;;;;;;;;1.10;88.10;;;;;;5109887;27;19932;-61
2024/01/13 11:04:35;;;;;;;;;;;1.10;88.00;;;;;;5108993;27;20339;-62
2024/01/13 11:07:08;;;;;;;;;;;1.10;88.10;;;;;;5095300;28;19942;-66
2024/01/13 11:09:43;;;;;;;;;;;1.10;88.10;;;;;;5112963;27;19964;-61
2024/01/13 11:12:19;;;;;;;;;;;1.10;87.90;;;;;;5098573;28;19935;-60
2024/01/13 11:14:57;;;;;;;;;;;1.10;88.00;;;;;;5088878;28;20030;-61
2024/01/13 11:17:31;;;;;;;;;;;1.10;87.90;;;;;;5104909;28;19977;-62
2024/01/13 11:20:06;;;;;;;;;;;1.10;87.80;;;;;;5111057;28;19936;-61
2024/01/13 11:22:40;;;;;;;;;;;1.10;87.90;;;;;;5116247;28;20382;-62
2024/01/13 11:25:26;;;;;;;;;;;1.10;88.00;;;;;;5117632;28;20331;-61
2024/01/13 11:28:00;;;;;;;;;;;1.10;88.00;;;;;;5109788;28;19927;-62
2024/01/13 11:30:38;;;;;;;;;;;1.10;88.00;;;;;;5100808;28;20020;-62
2024/01/13 11:33:12;;;;;;;;;;;1.10;88.00;;;;;;5106021;28;21415;-61
2024/01/13 11:35:47;;;;;;;;;;;1.00;88.10;;;;;;5098251;28;19924;-61
2024/01/13 11:38:21;;;;;;;;;;;1.10;88.00;;;;;;5109390;28;19923;-62
2024/01/13 11:40:56;;;;;;;;;;;1.00;88.10;;;;;;5108064;28;19931;-61
2024/01/13 11:43:30;;;;;;;;;;;1.10;88.10;;;;;;5102056;28;20082;-62
2024/01/13 11:46:03;;;;;;;;;;;1.10;88.00;;;;;;5098039;28;19931;-62
2024/01/13 11:48:43;;;;;;;;;;;1.10;88.00;;;;;;5102607;28;19928;-62
2024/01/13 11:51:19;;;;;;;;;;;1.10;88.00;;;;;;5095334;28;19924;-64
2024/01/13 11:53:53;;;;;;;;;;;1.20;88.00;;;;;;5096660;28;19931;-62
2024/01/13 11:56:27;;;;;;;;;;;1.20;88.00;;;;;;5094739;28;20298;-62
2024/01/13 11:59:00;;;;;;;;;;;1.20;87.90;;;;;;5099087;28;19924;-61
2024/01/13 12:01:33;;;;;;;;;;;1.20;87.90;;;;;;5113904;28;19950;-63
2024/01/13 12:04:06;;;;;;;;;;;1.20;87.80;;;;;;5113404;28;19970;-61
2024/01/13 12:06:42;;;;;;;;;;;1.20;87.80;;;;;;5111404;28;19931;-60
2024/01/13 12:09:15;;;;;;;;;;;1.20;87.80;;;;;;5108760;27;19940;-60
2024/01/13 12:11:51;;;;;;;;;;;1.20;87.80;;;;;;5112993;27;19923;-61
2024/01/13 12:14:25;;;;;;;;;;;1.20;87.80;;;;;;5097983;27;19928;-62
2024/01/13 12:17:00;;;;;;;;;;;1.20;87.70;;;;;;5097667;27;19998;-60
2024/01/13 12:19:36;;;;;;;;;;;1.20;87.70;;;;;;5100501;27;19946;-61
2024/01/13 12:22:11;;;;;;;;;;;1.20;87.70;;;;;;5113171;27;19923;-62
2024/01/13 12:24:44;;;;;;;;;;;1.20;87.80;;;;;;5110586;27;19964;-63
2024/01/13 12:27:18;;;;;;;;;;;1.20;87.80;;;;;;5099239;28;19924;-61
2024/01/13 12:29:55;;;;;;;;;;;1.20;87.70;;;;;;5112545;27;20283;-64
2024/01/13 12:32:30;;;;;;;;;;;1.20;87.70;;;;;;5117463;27;19924;-62
2024/01/13 12:35:03;;;;;;;;;;;1.20;87.60;;;;;;5099866;27;20356;-61
2024/01/13 12:37:38;;;;;;;;;;;1.20;87.60;;;;;;5098329;27;19935;-62
2024/01/13 12:40:13;;;;;;;;;;;1.20;87.50;;;;;;5105760;27;19928;-62
2024/01/13 12:42:46;;;;;;;;;;;1.20;87.50;;;;;;5113058;27;19978;-60
2024/01/13 12:45:20;;;;;;;;;;;1.20;87.40;;;;;;5099774;28;20015;-61
2024/01/13 12:47:53;;;;;;;;;;;1.20;87.40;;;;;;5106286;27;19928;-61
2024/01/13 12:50:25;;;;;;;;;;;1.20;87.30;;;;;;5092193;28;19928;-62
2024/01/13 12:53:00;;;;;;;;;;;1.20;87.40;;;;;;5115946;27;19931;-61
2024/01/13 12:55:34;;;;;;;;;;;1.20;87.30;;;;;;5107528;27;19925;-61
2024/01/13 12:58:07;;;;;;;;;;;1.20;87.30;;;;;;5107032;27;19928;-61
2024/01/13 13:00:40;;;;;;;;;;;1.20;87.30;;;;;;5090623;28;20006;-60
2024/01/13 13:03:13;;;;;;;;;;;1.20;87.20;;;;;;5103651;27;19967;-61
2024/01/13 13:05:47;;;;;;;;;;;1.20;87.30;;;;;;5093714;27;20287;-61
2024/01/13 13:08:22;;;;;;;;;;;1.20;87.20;;;;;;5092871;28;19939;-63
2024/01/13 13:10:56;;;;;;;;;;;1.20;87.20;;;;;;5115588;27;19931;-62
2024/01/13 13:13:29;;;;;;;;;;;1.20;87.20;;;;;;5079580;28;19961;-62
2024/01/13 13:16:04;;;;;;;;;;;1.20;87.20;;;;;;5100256;27;20015;-62
2024/01/13 13:18:38;;;;;;;;;;;1.20;87.10;;;;;;5109077;27;19968;-62
2024/01/13 13:21:11;;;;;;;;;;;1.20;87.10;;;;;;5097599;27;19928;-62
2024/01/13 13:23:46;;;;;;;;;;;1.20;87.10;;;;;;5109307;27;20014;-61
2024/01/13 13:26:19;;;;;;;;;;;1.20;87.10;;;;;;5110582;27;20709;-63
2024/01/13 13:28:52;;;;;;;;;;;1.20;87.10;;;;;;5103719;27;20449;-62
2024/01/13 13:31:25;;;;;;;;;;;1.20;87.00;;;;;;5101907;27;19948;-61
2024/01/13 13:33:58;;;;;;;;;;;1.20;87.00;;;;;;5100459;27;19959;-62
2024/01/13 13:36:31;;;;;;;;;;;1.20;87.00;;;;;;5113561;27;19924;-63
2024/01/13 13:39:05;;;;;;;;;;;1.20;87.00;;;;;;5107833;27;19931;-61
2024/01/13 13:41:39;;;;;;;;;;;1.20;86.90;;;;;;5114657;27;19932;-71
2024/01/13 13:44:13;;;;;;;;;;;1.20;86.90;;;;;;5105173;27;20020;-72
2024/01/13 13:46:46;;;;;;;;;;;1.20;86.90;;;;;;5116069;27;19942;-71
2024/01/13 13:49:19;;;;;;;;;;;1.20;86.90;;;;;;5117083;27;19930;-72
2024/01/13 13:51:53;;;;;;;;;;;1.20;86.90;;;;;;5097870;27;19940;-71
2024/01/13 13:54:28;;;;;;;;;;;1.20;86.90;;;;;;5103143;27;19951;-71
2024/01/13 13:57:02;;;;;;;;;;;1.20;86.80;;;;;;5114563;27;20403;-71
2024/01/13 13:59:35;;;;;;;;;;;1.20;86.80;;;;;;5094833;27;20391;-69
2024/01/13 14:02:08;;;;;;;;;;;1.20;86.80;;;;;;5109364;27;19932;-70
2024/01/13 14:04:41;;;;;;;;;;;1.20;86.80;;;;;;5104420;27;19948;-70
2024/01/13 14:07:14;;;;;;;;;;;1.20;86.70;;;;;;5087743;28;20032;-71
2024/01/13 14:09:49;;;;;;;;;;;1.20;86.70;;;;;;5087786;28;19924;-71
2024/01/13 14:12:23;;;;;;;;;;;1.30;86.60;;;;;;5063953;28;20439;-71
2024/01/13 14:14:56;;;;;;;;;;;1.30;86.50;;;;;;5111023;27;20004;-70
2024/01/13 14:17:29;;;;;;;;;;;1.30;86.40;;;;;;5119403;27;19932;-71
2024/01/13 14:20:02;;;;;;;;;;;1.30;86.30;;;;;;5109792;27;20026;-71
2024/01/13 14:22:35;;;;;;;;;;;1.30;86.30;;;;;;5099911;28;19948;-71
2024/01/13 14:25:09;;;;;;;;;;;1.30;86.20;;;;;;5116807;27;19927;-71
2024/01/13 14:27:43;;;;;;;;;;;1.30;86.40;;;;;;5097168;27;19931;-71
2024/01/13 14:30:16;;;;;;;;;;;1.30;86.30;;;;;;5111002;27;19934;-71
2024/01/13 14:32:49;;;;;;;;;;;1.30;86.20;;;;;;5099805;27;19969;-70
2024/01/13 14:35:22;;;;;;;;;;;1.20;86.00;;;;;;5109643;27;19932;-71
2024/01/13 14:37:55;;;;;;;;;;;1.20;86.10;;;;;;5095640;28;20400;-70
2024/01/13 14:40:29;;;;;;;;;;;1.20;86.00;;;;;;5100765;27;20693;-70
2024/01/13 14:43:02;;;;;;;;;;;1.30;86.00;;;;;;5115755;27;20582;-71
2024/01/13 14:45:35;;;;;;;;;;;1.30;86.00;;;;;;5115469;27;20285;-72
2024/01/13 14:48:08;;;;;;;;;;;1.30;85.90;;;;;;5101114;27;19924;-70
2024/01/13 14:50:41;;;;;;;;;;;1.30;86.00;;;;;;5104060;27;19934;-60
2024/01/13 14:53:15;;;;;;;;;;;1.20;86.00;;;;;;5107657;27;19950;-58
2024/01/13 14:55:50;;;;;;;;;;;1.30;86.00;;;;;;5100420;27;19928;-60
2024/01/13 14:58:24;;;;;;;;;;;1.20;85.90;;;;;;5110774;27;19934;-61
2024/01/13 15:00:57;;;;;;;;;;;1.30;86.00;;;;;;5115356;27;20386;-60
2024/01/13 15:03:30;;;;;;;;;;;1.20;86.00;;;;;;5115290;27;20294;-60
2024/01/13 15:05:56;;;;;;;;;;;1.20;85.80;;;;;;5114022;27;20056;-61
2024/01/13 15:08:30;;;;;;;;;;;1.20;85.80;;;;;;5103125;28;19989;-59